sensor_id;sensor_type;location;lat;lon;timestamp;pressure;altitude;pressure_sealevel;temperature;humidity
12178;BME280;6152;48.728;9.256;2023-04-28T00:02:07;96909.00;;;10.81;100.00
12178;BME280;6152;48.728;9.256;2023-04-28T00:04:33;96916.81;;;10.81;100.00
12178;BME280;6152;48.728;9.256;2023-04-28T00:06:59;96911.41;;;10.84;100.00
12178;BME280;6152;48.728;9.256;2023-04-28T00:09:25;96903.16;;;10.78;100.00
12178;BME280;6152;48.728;9.256;2023-04-28T00:11:51;96909.00;;;10.81;100.00
12178;BME280;6152;48.728;9.256;2023-04-28T00:14:17;96911.63;;;10.81;100.00
12178;BME280;6152;48.728;9.256;2023-04-28T00:16:43;96896.00;;;10.81;100.00
12178;BME280;6152;48.728;9.256;2023-04-28T00:19:09;96892.47;;;10.82;100.00
12178;BME280;6152;48.728;9.256;2023-04-28T00:21:35;96891.00;;;10.78;100.00
12178;BME280;6152;48.728;9.256;2023-04-28T00:24:02;96895.38;;;10.78;100.00
12178;BME280;6152;48.728;9.256;2023-04-28T00:26:28;96893.47;;;10.80;100.00
12178;BME280;6152;48.728;9.256;2023-04-28T00:28:54;96884.03;;;10.79;100.00
12178;BME280;6152;48.728;9.256;2023-04-28T00:31:20;96883.06;;;10.80;100.00
12178;BME280;6152;48.728;9.256;2023-04-28T00:33:47;96886.03;;;10.88;100.00
12178;BME280;6152;48.728;9.256;2023-04-28T00:36:13;96888.06;;;10.83;100.00
12178;BME280;6152;48.728;9.256;2023-04-28T00:38:39;96888.06;;;10.83;100.00
12178;BME280;6152;48.728;9.256;2023-04-28T00:41:05;96880.38;;;10.81;100.00
12178;BME280;6152;48.728;9.256;2023-04-28T00:43:42;96880.38;;;10.81;100.00
12178;BME280;6152;48.728;9.256;2023-04-28T00:46:08;96871.72;;;10.81;100.00
12178;BME280;6152;48.728;9.256;2023-04-28T00:48:35;96873.28;;;10.83;100.00
12178;BME280;6152;48.728;9.256;2023-04-28T00:51:02;96867.88;;;10.86;100.00
12178;BME280;6152;48.728;9.256;2023-04-28T00:53:28;96882.88;;;10.83;100.00
12178;BME280;6152;48.728;9.256;2023-04-28T00:55:54;96888.06;;;10.83;100.00
12178;BME280;6152;48.728;9.256;2023-04-28T00:58:22;96883.06;;;10.80;100.00
12178;BME280;6152;48.728;9.256;2023-04-28T01:00:48;96875.38;;;10.78;100.00
12178;BME280;6152;48.728;9.256;2023-04-28T01:03:14;96869.34;;;10.78;100.00
12178;BME280;6152;48.728;9.256;2023-04-28T01:05:41;96869.53;;;10.75;100.00
12178;BME280;6152;48.728;9.256;2023-04-28T01:08:07;96860.16;;;10.72;100.00
12178;BME280;6152;48.728;9.256;2023-04-28T01:10:33;96855.47;;;10.77;100.00
12178;BME280;6152;48.728;9.256;2023-04-28T01:12:59;96854.63;;;10.77;100.00
12178;BME280;6152;48.728;9.256;2023-04-28T01:15:25;96863.19;;;10.79;100.00
12178;BME280;6152;48.728;9.256;2023-04-28T01:17:52;96860.59;;;10.79;100.00
12178;BME280;6152;48.728;9.256;2023-04-28T01:20:18;96859.44;;;10.83;100.00
12178;BME280;6152;48.728;9.256;2023-04-28T01:22:44;96859.34;;;10.84;100.00
12178;BME280;6152;48.728;9.256;2023-04-28T01:25:11;96850.81;;;10.82;100.00
12178;BME280;6152;48.728;9.256;2023-04-28T01:27:37;96849.34;;;10.78;100.00
12178;BME280;6152;48.728;9.256;2023-04-28T01:30:03;96845.16;;;10.76;100.00
12178;BME280;6152;48.728;9.256;2023-04-28T01:32:29;96846.19;;;10.73;100.00
12178;BME280;6152;48.728;9.256;2023-04-28T01:34:56;96841.84;;;10.74;100.00
12178;BME280;6152;48.728;9.256;2023-04-28T01:37:22;96848.72;;;10.75;100.00
12178;BME280;6152;48.728;9.256;2023-04-28T01:39:48;96839.22;;;10.74;100.00
12178;BME280;6152;48.728;9.256;2023-04-28T01:42:14;96836.41;;;10.77;100.00
12178;BME280;6152;48.728;9.256;2023-04-28T01:44:40;96836.41;;;10.77;100.00
12178;BME280;6152;48.728;9.256;2023-04-28T01:47:07;96818.69;;;10.69;100.00
12178;BME280;6152;48.728;9.256;2023-04-28T01:49:33;96835.50;;;10.78;100.00
12178;BME280;6152;48.728;9.256;2023-04-28T01:51:59;96828.53;;;10.78;100.00
12178;BME280;6152;48.728;9.256;2023-04-28T01:54:25;96824.16;;;10.79;100.00
12178;BME280;6152;48.728;9.256;2023-04-28T01:56:52;96827.47;;;10.81;100.00
12178;BME280;6152;48.728;9.256;2023-04-28T01:59:18;96817.91;;;10.81;100.00
12178;BME280;6152;48.728;9.256;2023-04-28T02:01:46;96817.06;;;10.81;100.00
12178;BME280;6152;48.728;9.256;2023-04-28T02:04:12;96822.47;;;10.78;100.00
12178;BME280;6152;48.728;9.256;2023-04-28T02:06:38;96823.19;;;10.80;100.00
12178;BME280;6152;48.728;9.256;2023-04-28T02:09:04;96819.66;;;10.81;100.00
12178;BME280;6152;48.728;9.256;2023-04-28T02:11:30;96816.97;;;10.82;100.00
12178;BME280;6152;48.728;9.256;2023-04-28T02:13:56;96806.44;;;10.84;100.00
12178;BME280;6152;48.728;9.256;2023-04-28T02:16:22;96808.13;;;10.85;100.00
12178;BME280;6152;48.728;9.256;2023-04-28T02:18:48;96802.91;;;10.85;100.00
12178;BME280;6152;48.728;9.256;2023-04-28T02:21:15;96797.72;;;10.85;100.00
12178;BME280;6152;48.728;9.256;2023-04-28T02:23:41;96793.44;;;10.84;100.00
12178;BME280;6152;48.728;9.256;2023-04-28T02:26:07;96793.44;;;10.84;100.00
12178;BME280;6152;48.728;9.256;2023-04-28T02:28:33;96805.81;;;10.80;100.00
12178;BME280;6152;48.728;9.256;2023-04-28T02:31:06;96805.19;;;10.77;100.00
12178;BME280;6152;48.728;9.256;2023-04-28T02:33:32;96806.03;;;10.77;100.00
12178;BME280;6152;48.728;9.256;2023-04-28T02:36:00;96800.19;;;10.74;100.00
12178;BME280;6152;48.728;9.256;2023-04-28T02:38:26;96800.19;;;10.74;100.00
12178;BME280;6152;48.728;9.256;2023-04-28T02:41:03;96792.50;;;10.72;100.00
12178;BME280;6152;48.728;9.256;2023-04-28T02:43:30;96788.94;;;10.73;100.00
12178;BME280;6152;48.728;9.256;2023-04-28T02:45:56;96784.56;;;10.74;100.00
12178;BME280;6152;48.728;9.256;2023-04-28T02:48:23;96792.50;;;10.72;100.00
12178;BME280;6152;48.728;9.256;2023-04-28T02:50:50;96789.78;;;10.74;100.00
12178;BME280;6152;48.728;9.256;2023-04-28T02:53:18;96797.50;;;10.75;100.00
12178;BME280;6152;48.728;9.256;2023-04-28T02:55:44;96798.72;;;10.70;100.00
12178;BME280;6152;48.728;9.256;2023-04-28T02:58:11;96802.44;;;10.65;100.00
12178;BME280;6152;48.728;9.256;2023-04-28T03:00:37;96793.09;;;10.63;100.00
12178;BME280;6152;48.728;9.256;2023-04-28T03:03:03;96796.53;;;10.63;100.00
12178;BME280;6152;48.728;9.256;2023-04-28T03:05:29;96799.13;;;10.63;100.00
12178;BME280;6152;48.728;9.256;2023-04-28T03:07:56;96806.22;;;10.61;100.00
12178;BME280;6152;48.728;9.256;2023-04-28T03:10:22;96806.50;;;10.57;100.00
12178;BME280;6152;48.728;9.256;2023-04-28T03:12:48;96804.75;;;10.57;100.00
12178;BME280;6152;48.728;9.256;2023-04-28T03:15:14;96804.75;;;10.57;100.00
12178;BME280;6152;48.728;9.256;2023-04-28T03:17:41;96801.38;;;10.55;100.00
12178;BME280;6152;48.728;9.256;2023-04-28T03:20:08;96790.16;;;10.55;100.00
12178;BME280;6152;48.728;9.256;2023-04-28T03:22:35;96785.78;;;10.55;100.00
12178;BME280;6152;48.728;9.256;2023-04-28T03:25:01;96786.53;;;10.57;100.00
12178;BME280;6152;48.728;9.256;2023-04-28T03:27:28;96788.09;;;10.60;100.00
12178;BME280;6152;48.728;9.256;2023-04-28T03:29:54;96784.75;;;10.58;100.00
12178;BME280;6152;48.728;9.256;2023-04-28T03:32:20;96790.91;;;10.57;100.00
12178;BME280;6152;48.728;9.256;2023-04-28T03:34:46;96784.13;;;10.54;100.00
12178;BME280;6152;48.728;9.256;2023-04-28T03:37:12;96775.38;;;10.55;100.00
12178;BME280;6152;48.728;9.256;2023-04-28T03:39:38;96779.66;;;10.56;100.00
12178;BME280;6152;48.728;9.256;2023-04-28T03:42:05;96775.06;;;10.60;100.00
12178;BME280;6152;48.728;9.256;2023-04-28T03:44:31;96768.94;;;10.61;100.00
12178;BME280;6152;48.728;9.256;2023-04-28T03:46:57;96779.16;;;10.64;100.00
12178;BME280;6152;48.728;9.256;2023-04-28T03:49:23;96778.31;;;10.63;100.00
12178;BME280;6152;48.728;9.256;2023-04-28T03:51:49;96780.19;;;10.61;100.00
12178;BME280;6152;48.728;9.256;2023-04-28T03:54:16;96785.19;;;10.64;100.00
12178;BME280;6152;48.728;9.256;2023-04-28T03:56:42;96781.84;;;10.62;100.00
12178;BME280;6152;48.728;9.256;2023-04-28T03:59:09;96772.38;;;10.61;100.00
12178;BME280;6152;48.728;9.256;2023-04-28T04:01:38;96774.66;;;10.66;100.00
12178;BME280;6152;48.728;9.256;2023-04-28T04:04:04;96774.38;;;10.71;100.00
12178;BME280;6152;48.728;9.256;2023-04-28T04:06:30;96769.16;;;10.71;100.00
12178;BME280;6152;48.728;9.256;2023-04-28T04:08:57;96770.09;;;10.70;100.00
12178;BME280;6152;48.728;9.256;2023-04-28T04:11:23;96767.50;;;10.70;100.00
12178;BME280;6152;48.728;9.256;2023-04-28T04:13:49;96771.22;;;10.65;100.00
12178;BME280;6152;48.728;9.256;2023-04-28T04:16:15;96772.38;;;10.61;100.00
12178;BME280;6152;48.728;9.256;2023-04-28T04:18:41;96764.59;;;10.61;100.00
12178;BME280;6152;48.728;9.256;2023-04-28T04:21:08;96757.50;;;10.63;100.00
12178;BME280;6152;48.728;9.256;2023-04-28T04:23:34;96762.50;;;10.67;100.00
12178;BME280;6152;48.728;9.256;2023-04-28T04:26:00;96767.06;;;10.63;100.00
12178;BME280;6152;48.728;9.256;2023-04-28T04:28:26;96764.75;;;10.58;100.00
12178;BME280;6152;48.728;9.256;2023-04-28T04:30:52;96758.84;;;10.56;100.00
12178;BME280;6152;48.728;9.256;2023-04-28T04:33:18;96753.44;;;10.59;100.00
12178;BME280;6152;48.728;9.256;2023-04-28T04:35:44;96749.78;;;10.62;100.00
12178;BME280;6152;48.728;9.256;2023-04-28T04:38:11;96748.97;;;10.61;100.00
12178;BME280;6152;48.728;9.256;2023-04-28T04:40:38;96752.28;;;10.63;100.00
12178;BME280;6152;48.728;9.256;2023-04-28T04:43:04;96756.38;;;10.68;100.00
12178;BME280;6152;48.728;9.256;2023-04-28T04:45:30;96758.75;;;10.71;100.00
12178;BME280;6152;48.728;9.256;2023-04-28T04:47:56;96758.03;;;10.69;100.00
12178;BME280;6152;48.728;9.256;2023-04-28T04:50:23;96760.63;;;10.69;100.00
12178;BME280;6152;48.728;9.256;2023-04-28T04:52:49;96762.91;;;10.73;100.00
12178;BME280;6152;48.728;9.256;2023-04-28T04:55:15;96762.91;;;10.73;100.00
12178;BME280;6152;48.728;9.256;2023-04-28T04:57:41;96760.22;;;10.75;100.00
12178;BME280;6152;48.728;9.256;2023-04-28T05:00:08;96763.03;;;10.72;100.00
12178;BME280;6152;48.728;9.256;2023-04-28T05:02:34;96759.56;;;10.58;100.00
12178;BME280;6152;48.728;9.256;2023-04-28T05:05:00;96766.22;;;10.50;100.00
12178;BME280;6152;48.728;9.256;2023-04-28T05:07:26;96763.19;;;10.43;100.00
12178;BME280;6152;48.728;9.256;2023-04-28T05:09:53;96763.59;;;10.37;100.00
12178;BME280;6152;48.728;9.256;2023-04-28T05:12:19;96752.44;;;10.35;100.00
12178;BME280;6152;48.728;9.256;2023-04-28T05:14:45;96755.66;;;10.26;100.00
12178;BME280;6152;48.728;9.256;2023-04-28T05:17:11;96760.50;;;10.18;100.00
12178;BME280;6152;48.728;9.256;2023-04-28T05:19:37;96764.22;;;10.14;100.00
12178;BME280;6152;48.728;9.256;2023-04-28T05:22:03;96768.66;;;10.12;100.00
12178;BME280;6152;48.728;9.256;2023-04-28T05:24:29;96771.28;;;10.12;100.00
12178;BME280;6152;48.728;9.256;2023-04-28T05:26:58;96760.16;;;10.10;100.00
12178;BME280;6152;48.728;9.256;2023-04-28T05:29:24;96771.69;;;10.06;100.00
12178;BME280;6152;48.728;9.256;2023-04-28T05:31:50;96766.47;;;10.06;100.00
12178;BME280;6152;48.728;9.256;2023-04-28T05:34:16;96776.03;;;10.05;100.00
12178;BME280;6152;48.728;9.256;2023-04-28T05:36:43;96772.41;;;10.08;100.00
12178;BME280;6152;48.728;9.256;2023-04-28T05:39:09;96773.16;;;10.10;100.00
12178;BME280;6152;48.728;9.256;2023-04-28T05:41:35;96764.22;;;10.14;100.00
12178;BME280;6152;48.728;9.256;2023-04-28T05:44:02;96759.03;;;10.14;100.00
12178;BME280;6152;48.728;9.256;2023-04-28T05:46:28;96767.94;;;10.10;100.00
12178;BME280;6152;48.728;9.256;2023-04-28T05:48:54;96758.56;;;10.07;100.00
12178;BME280;6152;48.728;9.256;2023-04-28T05:51:20;96755.69;;;10.12;100.00
12178;BME280;6152;48.728;9.256;2023-04-28T05:53:47;96758.75;;;10.19;100.00
12178;BME280;6152;48.728;9.256;2023-04-28T05:56:14;96760.84;;;10.26;100.00
12178;BME280;6152;48.728;9.256;2023-04-28T05:58:42;96755.44;;;10.29;100.00
12178;BME280;6152;48.728;9.256;2023-04-28T06:01:12;96765.94;;;10.28;100.00
12178;BME280;6152;48.728;9.256;2023-04-28T06:03:38;96770.31;;;10.27;100.00
12178;BME280;6152;48.728;9.256;2023-04-28T06:06:08;96763.25;;;10.29;100.00
12178;BME280;6152;48.728;9.256;2023-04-28T06:08:35;96758.97;;;10.28;100.00
12178;BME280;6152;48.728;9.256;2023-04-28T06:11:02;96763.69;;;10.36;100.00
12178;BME280;6152;48.728;9.256;2023-04-28T06:13:28;96759.13;;;10.39;100.00
12178;BME280;6152;48.728;9.256;2023-04-28T06:15:54;96758.91;;;10.42;100.00
12178;BME280;6152;48.728;9.256;2023-04-28T06:18:20;96758.50;;;10.48;100.00
12178;BME280;6152;48.728;9.256;2023-04-28T06:20:48;96751.44;;;10.50;100.00
12178;BME280;6152;48.728;9.256;2023-04-28T06:23:14;96755.59;;;10.53;100.00
12178;BME280;6152;48.728;9.256;2023-04-28T06:25:41;96757.69;;;10.60;100.00
12178;BME280;6152;48.728;9.256;2023-04-28T06:28:07;96762.06;;;10.60;100.00
12178;BME280;6152;48.728;9.256;2023-04-28T06:30:34;96754.34;;;10.58;100.00
12178;BME280;6152;48.728;9.256;2023-04-28T06:33:00;96751.88;;;10.57;100.00
12178;BME280;6152;48.728;9.256;2023-04-28T06:35:26;96745.81;;;10.56;100.00
12178;BME280;6152;48.728;9.256;2023-04-28T06:37:53;96744.06;;;10.57;100.00
12178;BME280;6152;48.728;9.256;2023-04-28T06:40:19;96746.03;;;10.53;100.00
12178;BME280;6152;48.728;9.256;2023-04-28T06:42:45;96747.16;;;10.49;100.00
12178;BME280;6152;48.728;9.256;2023-04-28T06:45:11;96741.66;;;10.54;100.00
12178;BME280;6152;48.728;9.256;2023-04-28T06:47:37;96738.94;;;10.55;100.00
12178;BME280;6152;48.728;9.256;2023-04-28T06:50:05;96738.75;;;10.58;100.00
12178;BME280;6152;48.728;9.256;2023-04-28T06:52:32;96736.03;;;10.60;100.00
12178;BME280;6152;48.728;9.256;2023-04-28T06:54:58;96742.28;;;10.57;100.00
12178;BME280;6152;48.728;9.256;2023-04-28T06:57:24;96727.31;;;10.61;100.00
12178;BME280;6152;48.728;9.256;2023-04-28T06:59:50;96730.44;;;10.66;100.00
12178;BME280;6152;48.728;9.256;2023-04-28T07:02:16;96731.88;;;10.70;100.00
12178;BME280;6152;48.728;9.256;2023-04-28T07:04:42;96730.84;;;10.73;100.00
12178;BME280;6152;48.728;9.256;2023-04-28T07:07:08;96728.78;;;10.78;100.00
12178;BME280;6152;48.728;9.256;2023-04-28T07:09:35;96726.69;;;10.83;100.00
12178;BME280;6152;48.728;9.256;2023-04-28T07:12:01;96725.03;;;10.82;100.00
12178;BME280;6152;48.728;9.256;2023-04-28T07:14:29;96719.41;;;10.88;100.00
12178;BME280;6152;48.728;9.256;2023-04-28T07:16:55;96722.72;;;10.90;100.00
12178;BME280;6152;48.728;9.256;2023-04-28T07:19:21;96720.66;;;10.95;100.00
12178;BME280;6152;48.728;9.256;2023-04-28T07:21:47;96714.53;;;10.96;100.00
12178;BME280;6152;48.728;9.256;2023-04-28T07:24:13;96711.72;;;10.99;100.00
12178;BME280;6152;48.728;9.256;2023-04-28T07:26:39;96718.38;;;11.03;100.00
12178;BME280;6152;48.728;9.256;2023-04-28T07:29:06;96709.38;;;11.07;100.00
12178;BME280;6152;48.728;9.256;2023-04-28T07:31:33;96707.53;;;11.09;100.00
12178;BME280;6152;48.728;9.256;2023-04-28T07:34:00;96710.63;;;11.14;100.00
12178;BME280;6152;48.728;9.256;2023-04-28T07:36:26;96709.00;;;11.13;100.00
12178;BME280;6152;48.728;9.256;2023-04-28T07:38:52;96706.06;;;11.05;100.00
12178;BME280;6152;48.728;9.256;2023-04-28T07:41:18;96712.63;;;10.98;100.00
12178;BME280;6152;48.728;9.256;2023-04-28T07:43:44;96712.63;;;10.98;100.00
12178;BME280;6152;48.728;9.256;2023-04-28T07:46:11;96708.34;;;10.97;100.00
12178;BME280;6152;48.728;9.256;2023-04-28T07:48:38;96699.31;;;11.02;100.00
12178;BME280;6152;48.728;9.256;2023-04-28T07:51:04;96708.34;;;10.97;100.00
12178;BME280;6152;48.728;9.256;2023-04-28T07:53:30;96704.31;;;10.93;100.00
12178;BME280;6152;48.728;9.256;2023-04-28T07:55:56;96700.25;;;10.89;100.00
12178;BME280;6152;48.728;9.256;2023-04-28T07:58:22;96701.91;;;10.90;100.00
12178;BME280;6152;48.728;9.256;2023-04-28T08:00:48;96694.44;;;10.85;100.00
12178;BME280;6152;48.728;9.256;2023-04-28T08:03:14;96702.66;;;10.92;100.00
12178;BME280;6152;48.728;9.256;2023-04-28T08:05:41;96714.84;;;10.91;100.00
12178;BME280;6152;48.728;9.256;2023-04-28T08:08:07;96716.50;;;10.92;100.00
12178;BME280;6152;48.728;9.256;2023-04-28T08:10:34;96723.97;;;10.97;100.00
12178;BME280;6152;48.728;9.256;2023-04-28T08:13:00;96734.19;;;11.00;100.00
12178;BME280;6152;48.728;9.256;2023-04-28T08:15:26;96719.31;;;11.02;100.00
12178;BME280;6152;48.728;9.256;2023-04-28T08:17:52;96725.00;;;11.07;100.00
12178;BME280;6152;48.728;9.256;2023-04-28T08:20:18;96723.88;;;11.11;100.00
12178;BME280;6152;48.728;9.256;2023-04-28T08:22:45;96731.25;;;11.17;100.00
12178;BME280;6152;48.728;9.256;2023-04-28T08:25:11;96732.50;;;11.24;100.00
12178;BME280;6152;48.728;9.256;2023-04-28T08:27:37;96738.31;;;11.28;100.00
12178;BME280;6152;48.728;9.256;2023-04-28T08:30:06;96733.84;;;11.30;100.00
12178;BME280;6152;48.728;9.256;2023-04-28T08:32:32;96741.03;;;11.39;100.00
12178;BME280;6152;48.728;9.256;2023-04-28T08:34:59;96739.03;;;11.42;100.00
12178;BME280;6152;48.728;9.256;2023-04-28T08:37:26;96737.88;;;11.46;100.00
12178;BME280;6152;48.728;9.256;2023-04-28T08:39:52;96742.03;;;11.49;100.00
12178;BME280;6152;48.728;9.256;2023-04-28T08:42:29;96738.06;;;11.56;100.00
12178;BME280;6152;48.728;9.256;2023-04-28T08:44:57;96743.59;;;11.64;100.00
12178;BME280;6152;48.728;9.256;2023-04-28T08:47:32;96751.63;;;11.74;100.00
12178;BME280;6152;48.728;9.256;2023-04-28T08:50:05;96754.28;;;11.85;100.00
12178;BME280;6152;48.728;9.256;2023-04-28T08:52:33;96757.19;;;11.93;100.00
12178;BME280;6152;48.728;9.256;2023-04-28T08:55:01;96759.97;;;12.02;100.00
12178;BME280;6152;48.728;9.256;2023-04-28T08:57:35;96761.81;;;12.13;100.00
12178;BME280;6152;48.728;9.256;2023-04-28T09:00:03;96773.66;;;12.17;100.00
12178;BME280;6152;48.728;9.256;2023-04-28T09:02:30;96774.47;;;12.30;100.00
12178;BME280;6152;48.728;9.256;2023-04-28T09:04:56;96769.47;;;12.27;100.00
12178;BME280;6152;48.728;9.256;2023-04-28T09:07:23;96771.63;;;12.33;100.00
12178;BME280;6152;48.728;9.256;2023-04-28T09:09:49;96774.09;;;12.35;100.00
12178;BME280;6152;48.728;9.256;2023-04-28T09:12:15;96779.72;;;12.41;100.00
12178;BME280;6152;48.728;9.256;2023-04-28T09:14:42;96788.03;;;12.46;100.00
12178;BME280;6152;48.728;9.256;2023-04-28T09:17:10;96783.22;;;12.53;100.00
12178;BME280;6152;48.728;9.256;2023-04-28T09:19:41;96778.59;;;12.56;100.00
12178;BME280;6152;48.728;9.256;2023-04-28T09:22:08;96781.47;;;12.64;100.00
12178;BME280;6152;48.728;9.256;2023-04-28T09:24:36;96775.78;;;12.71;100.00
12178;BME280;6152;48.728;9.256;2023-04-28T09:27:05;96777.25;;;12.75;100.00
12178;BME280;6152;48.728;9.256;2023-04-28T09:29:32;96786.16;;;12.83;100.00
12178;BME280;6152;48.728;9.256;2023-04-28T09:32:21;96782.22;;;12.78;100.00
12178;BME280;6152;48.728;9.256;2023-04-28T09:34:53;96782.22;;;12.78;100.00
12178;BME280;6152;48.728;9.256;2023-04-28T09:37:22;96791.75;;;12.90;100.00
12178;BME280;6152;48.728;9.256;2023-04-28T09:39:51;96788.44;;;12.88;100.00
12178;BME280;6152;48.728;9.256;2023-04-28T09:42:37;96780.63;;;12.99;100.00
12178;BME280;6152;48.728;9.256;2023-04-28T09:45:05;96780.84;;;13.07;100.00
12178;BME280;6152;48.728;9.256;2023-04-28T09:47:34;96780.69;;;13.21;100.00
12178;BME280;6152;48.728;9.256;2023-04-28T09:50:03;96783.53;;;13.29;100.00
12178;BME280;6152;48.728;9.256;2023-04-28T09:52:32;96783.78;;;13.48;100.00
12178;BME280;6152;48.728;9.256;2023-04-28T09:55:01;96780.34;;;13.59;100.00
12178;BME280;6152;48.728;9.256;2023-04-28T09:57:30;96780.81;;;13.75;100.00
12178;BME280;6152;48.728;9.256;2023-04-28T10:00:00;96773.50;;;14.12;100.00
12178;BME280;6152;48.728;9.256;2023-04-28T10:02:27;96774.84;;;14.38;100.00
12178;BME280;6152;48.728;9.256;2023-04-28T10:04:54;96773.25;;;14.58;100.00
12178;BME280;6152;48.728;9.256;2023-04-28T10:07:21;96783.56;;;14.91;100.00
12178;BME280;6152;48.728;9.256;2023-04-28T10:09:48;96776.22;;;15.06;100.00
12178;BME280;6152;48.728;9.256;2023-04-28T10:12:20;96785.25;;;15.43;100.00
12178;BME280;6152;48.728;9.256;2023-04-28T10:14:47;96779.84;;;15.65;100.00
12178;BME280;6152;48.728;9.256;2023-04-28T10:17:16;96780.47;;;15.79;100.00
12178;BME280;6152;48.728;9.256;2023-04-28T10:19:44;96780.13;;;15.62;100.00
12178;BME280;6152;48.728;9.256;2023-04-28T10:22:27;96781.50;;;15.66;100.00
12178;BME280;6152;48.728;9.256;2023-04-28T10:27:41;96783.75;;;15.71;100.00
12178;BME280;6152;48.728;9.256;2023-04-28T10:30:13;96785.03;;;15.86;100.00
12178;BME280;6152;48.728;9.256;2023-04-28T10:32:40;96777.72;;;15.90;100.00
12178;BME280;6152;48.728;9.256;2023-04-28T10:40:40;96783.13;;;15.98;100.00
12178;BME280;6152;48.728;9.256;2023-04-28T10:43:08;96777.91;;;16.07;100.00
12178;BME280;6152;48.728;9.256;2023-04-28T10:56:26;96785.84;;;16.36;100.00
12178;BME280;6152;48.728;9.256;2023-04-28T10:58:56;96785.28;;;16.23;100.00
12178;BME280;6152;48.728;9.256;2023-04-28T11:01:30;96789.97;;;16.29;100.00
12178;BME280;6152;48.728;9.256;2023-04-28T11:04:09;96794.97;;;16.42;100.00
12178;BME280;6152;48.728;9.256;2023-04-28T11:07:07;96791.84;;;16.67;100.00
12178;BME280;6152;48.728;9.256;2023-04-28T11:22:03;96795.06;;;17.92;100.00
12178;BME280;6152;48.728;9.256;2023-04-28T11:24:30;96795.47;;;18.15;100.00
12178;BME280;6152;48.728;9.256;2023-04-28T11:26:58;96790.38;;;18.31;100.00
12178;BME280;6152;48.728;9.256;2023-04-28T11:29:50;96796.75;;;18.11;100.00
12178;BME280;6152;48.728;9.256;2023-04-28T11:32:17;96799.72;;;17.98;100.00
12178;BME280;6152;48.728;9.256;2023-04-28T11:34:51;96791.72;;;17.90;100.00
12178;BME280;6152;48.728;9.256;2023-04-28T11:37:17;96790.41;;;17.77;100.00
12178;BME280;6152;48.728;9.256;2023-04-28T11:39:46;96785.84;;;17.69;100.00
12178;BME280;6152;48.728;9.256;2023-04-28T11:42:12;96782.91;;;17.82;100.00
12178;BME280;6152;48.728;9.256;2023-04-28T11:44:38;96783.16;;;17.88;100.00
12178;BME280;6152;48.728;9.256;2023-04-28T11:47:05;96781.41;;;18.06;100.00
12178;BME280;6152;48.728;9.256;2023-04-28T11:49:44;96786.75;;;17.87;100.00
12178;BME280;6152;48.728;9.256;2023-04-28T11:52:11;96777.44;;;18.20;100.00
12178;BME280;6152;48.728;9.256;2023-04-28T11:54:37;96777.47;;;18.10;100.00
12178;BME280;6152;48.728;9.256;2023-04-28T11:57:04;96781.44;;;17.97;100.00
12178;BME280;6152;48.728;9.256;2023-04-28T11:59:33;96779.50;;;17.99;100.00
12178;BME280;6152;48.728;9.256;2023-04-28T12:02:05;96770.91;;;17.97;100.00
12178;BME280;6152;48.728;9.256;2023-04-28T12:09:33;96773.75;;;18.13;100.00
12178;BME280;6152;48.728;9.256;2023-04-28T12:12:05;96786.03;;;17.95;100.00
12178;BME280;6152;48.728;9.256;2023-04-28T12:14:52;96780.94;;;17.84;100.00
12178;BME280;6152;48.728;9.256;2023-04-28T12:17:25;96781.72;;;17.94;100.00
12178;BME280;6152;48.728;9.256;2023-04-28T12:19:52;96775.09;;;17.90;100.00
12178;BME280;6152;48.728;9.256;2023-04-28T12:22:18;96771.31;;;17.75;100.00
12178;BME280;6152;48.728;9.256;2023-04-28T12:24:44;96771.78;;;17.88;100.00
12178;BME280;6152;48.728;9.256;2023-04-28T12:27:18;96770.03;;;18.06;100.00
12178;BME280;6152;48.728;9.256;2023-04-28T12:29:50;96770.50;;;18.19;100.00
12178;BME280;6152;48.728;9.256;2023-04-28T12:32:17;96771.47;;;18.18;100.00
12178;BME280;6152;48.728;9.256;2023-04-28T12:34:45;96774.34;;;18.25;100.00
12178;BME280;6152;48.728;9.256;2023-04-28T12:37:11;96769.59;;;18.28;100.00
12178;BME280;6152;48.728;9.256;2023-04-28T12:39:40;96773.75;;;18.31;100.00
12178;BME280;6152;48.728;9.256;2023-04-28T12:42:06;96781.16;;;18.27;100.00
12178;BME280;6152;48.728;9.256;2023-04-28T12:44:36;96775.25;;;18.15;100.00
12178;BME280;6152;48.728;9.256;2023-04-28T12:47:04;96778.50;;;18.27;100.00
12178;BME280;6152;48.728;9.256;2023-04-28T12:49:30;96769.00;;;18.16;100.00
12178;BME280;6152;48.728;9.256;2023-04-28T12:51:57;96769.59;;;18.28;100.00
12178;BME280;6152;48.728;9.256;2023-04-28T12:54:23;96769.53;;;18.20;100.00
12178;BME280;6152;48.728;9.256;2023-04-28T12:56:49;96771.88;;;18.23;100.00
12178;BME280;6152;48.728;9.256;2023-04-28T12:59:16;96766.31;;;18.26;100.00
12178;BME280;6152;48.728;9.256;2023-04-28T13:01:42;96763.75;;;18.34;100.00
12178;BME280;6152;48.728;9.256;2023-04-28T13:04:09;96767.06;;;18.36;100.00
12178;BME280;6152;48.728;9.256;2023-04-28T13:06:35;96772.03;;;18.39;100.00
12178;BME280;6152;48.728;9.256;2023-04-28T13:09:01;96764.22;;;18.47;100.00
12178;BME280;6152;48.728;9.256;2023-04-28T13:11:28;96766.75;;;18.39;100.00
12178;BME280;6152;48.728;9.256;2023-04-28T13:13:55;96765.09;;;18.38;100.00
12178;BME280;6152;48.728;9.256;2023-04-28T13:16:22;96768.47;;;18.31;100.00
12178;BME280;6152;48.728;9.256;2023-04-28T13:18:50;96761.38;;;17.96;100.00
12178;BME280;6152;48.728;9.256;2023-04-28T13:21:17;96747.38;;;17.58;100.00
12178;BME280;6152;48.728;9.256;2023-04-28T13:23:43;96735.97;;;17.40;100.00
12178;BME280;6152;48.728;9.256;2023-04-28T13:26:09;96723.19;;;17.45;100.00
12178;BME280;6152;48.728;9.256;2023-04-28T13:28:35;96720.09;;;17.59;100.00
12178;BME280;6152;48.728;9.256;2023-04-28T13:31:01;96718.16;;;17.89;100.00
12178;BME280;6152;48.728;9.256;2023-04-28T13:33:28;96725.13;;;18.25;100.00
12178;BME280;6152;48.728;9.256;2023-04-28T13:35:59;96725.47;;;18.75;100.00
12178;BME280;6152;48.728;9.256;2023-04-28T13:38:25;96734.66;;;18.97;100.00